sensor_id;sensor_type;location;lat;lon;timestamp;pressure;altitude;pressure_sealevel;temperature;humidity
15314;BME280;7757;52.626;4.746;2022-09-06T00:02:18;101493.38;;;24.55;64.02
15314;BME280;7757;52.626;4.746;2022-09-06T00:04:45;101502.38;;;24.18;65.32
15314;BME280;7757;52.626;4.746;2022-09-06T00:07:12;101501.81;;;24.48;64.44
15314;BME280;7757;52.626;4.746;2022-09-06T00:09:38;101507.28;;;24.48;63.68
15314;BME280;7757;52.626;4.746;2022-09-06T00:12:05;101487.13;;;23.25;67.20
15314;BME280;7757;52.626;4.746;2022-09-06T00:14:32;101486.63;;;23.77;66.54
15314;BME280;7757;52.626;4.746;2022-09-06T00:16:59;101500.44;;;24.51;63.89
15314;BME280;7757;52.626;4.746;2022-09-06T00:19:27;101497.88;;;24.34;64.17
15314;BME280;7757;52.626;4.746;2022-09-06T00:21:53;101495.53;;;24.16;64.90
15314;BME280;7757;52.626;4.746;2022-09-06T00:24:20;101491.28;;;24.67;62.99
15314;BME280;7757;52.626;4.746;2022-09-06T00:26:46;101503.19;;;24.51;63.85
15314;BME280;7757;52.626;4.746;2022-09-06T00:29:13;101489.66;;;24.07;64.46
15314;BME280;7757;52.626;4.746;2022-09-06T00:31:39;101483.84;;;23.72;66.81
15314;BME280;7757;52.626;4.746;2022-09-06T00:34:05;101485.81;;;23.50;67.96
15314;BME280;7757;52.626;4.746;2022-09-06T00:36:33;101472.25;;;23.60;67.02
15314;BME280;7757;52.626;4.746;2022-09-06T00:39:00;101475.22;;;23.37;67.73
15314;BME280;7757;52.626;4.746;2022-09-06T00:41:26;101478.50;;;23.55;67.32
15314;BME280;7757;52.626;4.746;2022-09-06T00:43:53;101480.88;;;23.73;66.35
15314;BME280;7757;52.626;4.746;2022-09-06T00:46:22;101485.44;;;23.95;65.11
15314;BME280;7757;52.626;4.746;2022-09-06T00:48:52;101494.75;;;23.67;66.09
15314;BME280;7757;52.626;4.746;2022-09-06T00:51:21;101508.31;;;24.74;62.72
15314;BME280;7757;52.626;4.746;2022-09-06T00:53:51;101508.75;;;24.98;61.50
15314;BME280;7757;52.626;4.746;2022-09-06T00:56:18;101500.28;;;25.04;61.49
15314;BME280;7757;52.626;4.746;2022-09-06T00:58:45;101499.31;;;24.41;62.62
15314;BME280;7757;52.626;4.746;2022-09-06T01:01:13;101480.69;;;23.37;67.94
15314;BME280;7757;52.626;4.746;2022-09-06T01:03:39;101477.81;;;24.60;63.67
15314;BME280;7757;52.626;4.746;2022-09-06T01:06:16;101476.44;;;24.21;63.91
15314;BME280;7757;52.626;4.746;2022-09-06T01:08:58;101486.94;;;24.71;62.69
15314;BME280;7757;52.626;4.746;2022-09-06T01:11:38;101469.41;;;24.72;62.28
15314;BME280;7757;52.626;4.746;2022-09-06T01:14:12;101462.84;;;24.68;62.32
15314;BME280;7757;52.626;4.746;2022-09-06T01:16:44;101473.03;;;24.40;63.10
15314;BME280;7757;52.626;4.746;2022-09-06T01:19:29;101471.94;;;23.83;64.98
15314;BME280;7757;52.626;4.746;2022-09-06T01:22:12;101476.31;;;24.79;62.20
15314;BME280;7757;52.626;4.746;2022-09-06T01:24:59;101477.31;;;25.10;60.99
15314;BME280;7757;52.626;4.746;2022-09-06T01:27:53;101469.69;;;25.12;61.51
15314;BME280;7757;52.626;4.746;2022-09-06T01:30:30;101464.97;;;24.61;62.72
15314;BME280;7757;52.626;4.746;2022-09-06T01:33:06;101458.88;;;24.49;63.21
15314;BME280;7757;52.626;4.746;2022-09-06T01:35:39;101456.38;;;24.42;63.10
15314;BME280;7757;52.626;4.746;2022-09-06T01:38:07;101462.41;;;24.81;62.00
15314;BME280;7757;52.626;4.746;2022-09-06T01:40:34;101452.19;;;24.71;61.96
15314;BME280;7757;52.626;4.746;2022-09-06T01:43:03;101460.75;;;24.43;63.00
15314;BME280;7757;52.626;4.746;2022-09-06T01:45:38;101466.66;;;25.09;61.23
15314;BME280;7757;52.626;4.746;2022-09-06T01:48:11;101467.50;;;25.09;60.75
15314;BME280;7757;52.626;4.746;2022-09-06T01:50:57;101456.31;;;24.74;61.91
15314;BME280;7757;52.626;4.746;2022-09-06T01:53:38;101445.59;;;23.02;68.83
15314;BME280;7757;52.626;4.746;2022-09-06T01:56:15;101436.03;;;24.70;62.93
15314;BME280;7757;52.626;4.746;2022-09-06T01:59:00;101435.16;;;25.06;61.04
15314;BME280;7757;52.626;4.746;2022-09-06T02:01:36;101430.25;;;25.08;60.63
15314;BME280;7757;52.626;4.746;2022-09-06T02:04:10;101442.88;;;25.14;60.13
15314;BME280;7757;52.626;4.746;2022-09-06T02:06:42;101438.94;;;24.95;60.80
15314;BME280;7757;52.626;4.746;2022-09-06T02:09:14;101419.28;;;25.03;60.32
15314;BME280;7757;52.626;4.746;2022-09-06T02:11:47;101425.06;;;25.17;60.78
15314;BME280;7757;52.626;4.746;2022-09-06T02:14:18;101416.88;;;25.22;60.20
15314;BME280;7757;52.626;4.746;2022-09-06T02:16:46;101403.44;;;25.15;60.61
15314;BME280;7757;52.626;4.746;2022-09-06T02:19:18;101396.31;;;25.19;59.96
15314;BME280;7757;52.626;4.746;2022-09-06T02:21:46;101397.97;;;25.20;60.13
15314;BME280;7757;52.626;4.746;2022-09-06T02:24:16;101406.22;;;25.30;59.53
15314;BME280;7757;52.626;4.746;2022-09-06T02:26:45;101404.03;;;25.32;59.65
15314;BME280;7757;52.626;4.746;2022-09-06T02:29:12;101399.53;;;24.91;60.86
15314;BME280;7757;52.626;4.746;2022-09-06T02:31:43;101386.56;;;23.98;65.19
15314;BME280;7757;52.626;4.746;2022-09-06T02:34:13;101373.31;;;25.10;60.93
15314;BME280;7757;52.626;4.746;2022-09-06T02:36:40;101366.50;;;25.23;60.03
15314;BME280;7757;52.626;4.746;2022-09-06T02:39:07;101369.00;;;25.29;59.76
15314;BME280;7757;52.626;4.746;2022-09-06T02:41:34;101368.69;;;25.31;60.07
15314;BME280;7757;52.626;4.746;2022-09-06T02:44:01;101369.25;;;25.28;59.67
15314;BME280;7757;52.626;4.746;2022-09-06T02:46:27;101372.25;;;25.26;59.57
15314;BME280;7757;52.626;4.746;2022-09-06T02:48:56;101378.28;;;25.23;60.15
15314;BME280;7757;52.626;4.746;2022-09-06T02:51:23;101379.38;;;25.22;60.07
15314;BME280;7757;52.626;4.746;2022-09-06T02:53:49;101371.97;;;25.28;59.81
15314;BME280;7757;52.626;4.746;2022-09-06T02:56:15;101373.34;;;25.25;59.54
15314;BME280;7757;52.626;4.746;2022-09-06T02:58:42;101373.94;;;25.32;59.58
15314;BME280;7757;52.626;4.746;2022-09-06T03:01:08;101380.75;;;25.30;59.39
15314;BME280;7757;52.626;4.746;2022-09-06T03:03:35;101387.63;;;25.32;59.71
15314;BME280;7757;52.626;4.746;2022-09-06T03:06:03;101389.75;;;23.84;65.37
15314;BME280;7757;52.626;4.746;2022-09-06T03:08:29;101385.38;;;25.09;60.82
15314;BME280;7757;52.626;4.746;2022-09-06T03:10:58;101371.44;;;25.26;59.81
15314;BME280;7757;52.626;4.746;2022-09-06T03:13:25;101375.47;;;25.03;60.12
15314;BME280;7757;52.626;4.746;2022-09-06T03:15:53;101384.53;;;25.19;60.03
15314;BME280;7757;52.626;4.746;2022-09-06T03:18:20;101378.28;;;25.18;60.02
15314;BME280;7757;52.626;4.746;2022-09-06T03:20:47;101386.22;;;25.20;60.04
15314;BME280;7757;52.626;4.746;2022-09-06T03:23:16;101396.09;;;25.26;59.71
15314;BME280;7757;52.626;4.746;2022-09-06T03:25:42;101401.03;;;25.29;59.91
15314;BME280;7757;52.626;4.746;2022-09-06T03:28:09;101407.63;;;25.33;59.52
15314;BME280;7757;52.626;4.746;2022-09-06T03:30:37;101402.69;;;25.35;59.50
15314;BME280;7757;52.626;4.746;2022-09-06T03:33:03;101405.97;;;25.32;59.51
15314;BME280;7757;52.626;4.746;2022-09-06T03:35:30;101405.13;;;25.36;59.47
15314;BME280;7757;52.626;4.746;2022-09-06T03:37:56;101410.34;;;25.38;59.27
15314;BME280;7757;52.626;4.746;2022-09-06T03:40:24;101409.00;;;25.35;59.06
15314;BME280;7757;52.626;4.746;2022-09-06T03:42:50;101404.88;;;25.43;58.92
15314;BME280;7757;52.626;4.746;2022-09-06T03:45:17;101413.00;;;24.19;63.49
15314;BME280;7757;52.626;4.746;2022-09-06T03:47:43;101400.97;;;25.09;60.94
15314;BME280;7757;52.626;4.746;2022-09-06T03:50:10;101408.34;;;25.03;60.50
15314;BME280;7757;52.626;4.746;2022-09-06T03:52:36;101407.81;;;23.91;65.17
15314;BME280;7757;52.626;4.746;2022-09-06T03:55:04;101408.03;;;24.94;61.38
15314;BME280;7757;52.626;4.746;2022-09-06T03:57:32;101414.16;;;25.27;59.53
15314;BME280;7757;52.626;4.746;2022-09-06T03:59:59;101421.31;;;25.33;59.40
15314;BME280;7757;52.626;4.746;2022-09-06T04:02:25;101421.84;;;25.35;59.43
15314;BME280;7757;52.626;4.746;2022-09-06T04:04:52;101428.94;;;25.26;59.32
15314;BME280;7757;52.626;4.746;2022-09-06T04:07:20;101418.81;;;25.36;59.03
15314;BME280;7757;52.626;4.746;2022-09-06T04:09:46;101424.59;;;25.35;59.11
15314;BME280;7757;52.626;4.746;2022-09-06T04:12:13;101419.94;;;25.35;59.03
15314;BME280;7757;52.626;4.746;2022-09-06T04:14:41;101425.38;;;25.30;59.50
15314;BME280;7757;52.626;4.746;2022-09-06T04:17:07;101427.84;;;25.27;59.16
15314;BME280;7757;52.626;4.746;2022-09-06T04:19:33;101428.84;;;25.01;60.41
15314;BME280;7757;52.626;4.746;2022-09-06T04:22:00;101431.09;;;25.19;59.69
15314;BME280;7757;52.626;4.746;2022-09-06T04:24:26;101424.53;;;25.25;59.31
15314;BME280;7757;52.626;4.746;2022-09-06T04:26:53;101433.03;;;25.23;59.54
15314;BME280;7757;52.626;4.746;2022-09-06T04:29:19;101430.59;;;25.27;59.27
15314;BME280;7757;52.626;4.746;2022-09-06T04:31:47;101440.47;;;25.33;59.11
15314;BME280;7757;52.626;4.746;2022-09-06T04:34:13;101438.28;;;25.35;59.03
15314;BME280;7757;52.626;4.746;2022-09-06T04:36:40;101435.00;;;25.33;58.80
15314;BME280;7757;52.626;4.746;2022-09-06T04:39:07;101429.78;;;25.36;58.85
15314;BME280;7757;52.626;4.746;2022-09-06T04:41:34;101418.31;;;23.72;63.96
15314;BME280;7757;52.626;4.746;2022-09-06T04:44:00;101417.94;;;24.22;64.21
15314;BME280;7757;52.626;4.746;2022-09-06T04:46:28;101425.06;;;25.12;60.02
15314;BME280;7757;52.626;4.746;2022-09-06T04:48:56;101437.97;;;25.26;59.70
15314;BME280;7757;52.626;4.746;2022-09-06T04:51:25;101403.53;;;24.31;62.62
15314;BME280;7757;52.626;4.746;2022-09-06T04:53:52;101422.19;;;24.86;61.23
15314;BME280;7757;52.626;4.746;2022-09-06T04:56:20;101428.34;;;25.14;60.04
15314;BME280;7757;52.626;4.746;2022-09-06T04:58:48;101416.88;;;24.23;61.94
15314;BME280;7757;52.626;4.746;2022-09-06T05:01:15;101412.69;;;24.52;62.63
15314;BME280;7757;52.626;4.746;2022-09-06T05:03:42;101414.66;;;25.09;60.41
15314;BME280;7757;52.626;4.746;2022-09-06T05:06:11;101421.78;;;25.15;59.54
15314;BME280;7757;52.626;4.746;2022-09-06T05:08:39;101425.13;;;25.27;59.32
15314;BME280;7757;52.626;4.746;2022-09-06T05:11:06;101433.03;;;25.18;59.32
15314;BME280;7757;52.626;4.746;2022-09-06T05:13:34;101424.53;;;25.20;59.32
15314;BME280;7757;52.626;4.746;2022-09-06T05:16:01;101424.31;;;25.36;58.68
15314;BME280;7757;52.626;4.746;2022-09-06T05:18:28;101420.47;;;25.37;58.64
15314;BME280;7757;52.626;4.746;2022-09-06T05:20:55;101415.78;;;25.23;59.04
15314;BME280;7757;52.626;4.746;2022-09-06T05:23:24;101406.22;;;25.25;59.17
15314;BME280;7757;52.626;4.746;2022-09-06T05:25:52;101407.53;;;25.13;59.63
15314;BME280;7757;52.626;4.746;2022-09-06T05:28:19;101402.88;;;25.13;59.64
15314;BME280;7757;52.626;4.746;2022-09-06T05:30:46;101399.00;;;25.04;60.15
15314;BME280;7757;52.626;4.746;2022-09-06T05:33:18;101393.28;;;25.01;60.15
15314;BME280;7757;52.626;4.746;2022-09-06T05:35:45;101383.94;;;25.02;60.17
15314;BME280;7757;52.626;4.746;2022-09-06T05:38:12;101393.28;;;25.06;60.00
15314;BME280;7757;52.626;4.746;2022-09-06T05:40:40;101380.38;;;25.01;59.97
15314;BME280;7757;52.626;4.746;2022-09-06T05:43:07;101383.69;;;25.03;60.30
15314;BME280;7757;52.626;4.746;2022-09-06T05:45:33;101378.28;;;24.19;62.75
15314;BME280;7757;52.626;4.746;2022-09-06T05:48:00;101385.00;;;24.85;60.72
15314;BME280;7757;52.626;4.746;2022-09-06T05:50:26;101377.88;;;24.89;60.42
15314;BME280;7757;52.626;4.746;2022-09-06T05:52:53;101362.41;;;24.63;61.69
15314;BME280;7757;52.626;4.746;2022-09-06T05:55:19;101363.69;;;24.51;61.82
15314;BME280;7757;52.626;4.746;2022-09-06T05:57:47;101362.91;;;24.50;62.13
15314;BME280;7757;52.626;4.746;2022-09-06T06:00:14;101371.88;;;24.46;62.50
15314;BME280;7757;52.626;4.746;2022-09-06T06:02:40;101367.25;;;24.51;62.50
15314;BME280;7757;52.626;4.746;2022-09-06T06:05:07;101359.97;;;24.72;61.70
15314;BME280;7757;52.626;4.746;2022-09-06T06:07:34;101364.59;;;24.56;62.72
15314;BME280;7757;52.626;4.746;2022-09-06T06:10:00;101352.22;;;24.49;62.70
15314;BME280;7757;52.626;4.746;2022-09-06T06:12:27;101354.66;;;24.03;64.16
15314;BME280;7757;52.626;4.746;2022-09-06T06:14:55;101355.47;;;24.46;63.39
15314;BME280;7757;52.626;4.746;2022-09-06T06:17:21;101349.16;;;24.35;63.31
15314;BME280;7757;52.626;4.746;2022-09-06T06:19:48;101364.97;;;24.33;63.31
15314;BME280;7757;52.626;4.746;2022-09-06T06:22:15;101373.19;;;24.80;61.97
15314;BME280;7757;52.626;4.746;2022-09-06T06:24:41;101371.84;;;24.82;61.24
15314;BME280;7757;52.626;4.746;2022-09-06T06:27:08;101364.19;;;24.84;61.55
15314;BME280;7757;52.626;4.746;2022-09-06T06:29:34;101368.06;;;24.93;61.57
15314;BME280;7757;52.626;4.746;2022-09-06T06:32:02;101364.19;;;24.89;61.25
15314;BME280;7757;52.626;4.746;2022-09-06T06:34:29;101369.03;;;25.55;60.23
15314;BME280;7757;52.626;4.746;2022-09-06T06:36:55;101384.69;;;25.79;59.45
15314;BME280;7757;52.626;4.746;2022-09-06T06:39:22;101395.09;;;25.92;58.99
15314;BME280;7757;52.626;4.746;2022-09-06T06:41:48;101401.69;;;25.81;59.00
15314;BME280;7757;52.626;4.746;2022-09-06T06:44:15;101395.72;;;24.97;61.60
15314;BME280;7757;52.626;4.746;2022-09-06T06:46:41;101396.22;;;25.91;59.40
15314;BME280;7757;52.626;4.746;2022-09-06T06:49:09;101392.38;;;25.77;60.07
15314;BME280;7757;52.626;4.746;2022-09-06T06:51:36;101389.34;;;26.14;58.67
15314;BME280;7757;52.626;4.746;2022-09-06T06:54:03;101397.59;;;26.29;57.89
15314;BME280;7757;52.626;4.746;2022-09-06T06:56:33;101386.34;;;26.26;58.36
15314;BME280;7757;52.626;4.746;2022-09-06T06:59:02;101398.41;;;25.94;59.08
15314;BME280;7757;52.626;4.746;2022-09-06T07:01:30;101385.78;;;25.78;59.50
15314;BME280;7757;52.626;4.746;2022-09-06T07:03:57;101377.56;;;25.78;59.71
15314;BME280;7757;52.626;4.746;2022-09-06T07:06:26;101368.50;;;25.93;59.38
15314;BME280;7757;52.626;4.746;2022-09-06T07:08:55;101364.16;;;25.77;60.17
15314;BME280;7757;52.626;4.746;2022-09-06T07:11:21;101360.03;;;25.99;59.06
15314;BME280;7757;52.626;4.746;2022-09-06T07:13:48;101363.06;;;26.18;59.32
15314;BME280;7757;52.626;4.746;2022-09-06T07:16:16;101366.06;;;25.76;60.65
15314;BME280;7757;52.626;4.746;2022-09-06T07:18:43;101358.34;;;26.29;59.25
15314;BME280;7757;52.626;4.746;2022-09-06T07:21:11;101356.06;;;26.61;58.26
15314;BME280;7757;52.626;4.746;2022-09-06T07:23:40;101355.63;;;26.29;59.31
15314;BME280;7757;52.626;4.746;2022-09-06T07:26:07;101365.78;;;25.73;61.52
15314;BME280;7757;52.626;4.746;2022-09-06T07:28:38;101374.41;;;26.86;57.90
15314;BME280;7757;52.626;4.746;2022-09-06T07:31:04;101364.94;;;27.95;55.17
15314;BME280;7757;52.626;4.746;2022-09-06T07:33:33;101370.63;;;27.26;56.31
15314;BME280;7757;52.626;4.746;2022-09-06T07:36:02;101366.06;;;26.27;59.70
15314;BME280;7757;52.626;4.746;2022-09-06T07:38:29;101368.59;;;27.46;56.51
15314;BME280;7757;52.626;4.746;2022-09-06T07:40:59;101379.66;;;27.31;56.61
15314;BME280;7757;52.626;4.746;2022-09-06T07:43:27;101370.84;;;26.85;58.28
15314;BME280;7757;52.626;4.746;2022-09-06T07:45:58;101369.03;;;26.10;60.86
15314;BME280;7757;52.626;4.746;2022-09-06T07:48:26;101363.31;;;26.17;61.15
15314;BME280;7757;52.626;4.746;2022-09-06T07:50:53;101372.91;;;26.29;60.68
15314;BME280;7757;52.626;4.746;2022-09-06T07:53:20;101375.09;;;25.82;62.25
15314;BME280;7757;52.626;4.746;2022-09-06T07:55:47;101372.09;;;25.88;62.21
15314;BME280;7757;52.626;4.746;2022-09-06T07:58:14;101364.09;;;26.37;60.74
15314;BME280;7757;52.626;4.746;2022-09-06T08:00:41;101365.72;;;26.53;60.09
15314;BME280;7757;52.626;4.746;2022-09-06T08:03:07;101367.13;;;26.41;60.70
15314;BME280;7757;52.626;4.746;2022-09-06T08:05:34;101376.41;;;26.50;60.89
15314;BME280;7757;52.626;4.746;2022-09-06T08:08:01;101369.97;;;26.90;59.82
15314;BME280;7757;52.626;4.746;2022-09-06T08:10:27;101369.50;;;26.68;59.65
15314;BME280;7757;52.626;4.746;2022-09-06T08:12:54;101369.25;;;26.64;59.26
15314;BME280;7757;52.626;4.746;2022-09-06T08:15:22;101366.19;;;26.71;59.40
15314;BME280;7757;52.626;4.746;2022-09-06T08:17:49;101358.53;;;26.68;60.28
15314;BME280;7757;52.626;4.746;2022-09-06T08:20:17;101367.72;;;27.02;58.81
15314;BME280;7757;52.626;4.746;2022-09-06T08:22:43;101366.06;;;27.06;58.53
15314;BME280;7757;52.626;4.746;2022-09-06T08:25:09;101367.84;;;26.67;59.23
15314;BME280;7757;52.626;4.746;2022-09-06T08:27:36;101372.03;;;26.54;59.38
15314;BME280;7757;52.626;4.746;2022-09-06T08:30:03;101366.25;;;26.55;58.96
15314;BME280;7757;52.626;4.746;2022-09-06T08:32:33;101357.44;;;26.69;58.19
15314;BME280;7757;52.626;4.746;2022-09-06T08:35:00;101365.28;;;27.00;57.62
15314;BME280;7757;52.626;4.746;2022-09-06T08:37:27;101366.59;;;27.13;57.02
15314;BME280;7757;52.626;4.746;2022-09-06T08:39:53;101357.16;;;26.80;56.13
15314;BME280;7757;52.626;4.746;2022-09-06T08:42:19;101352.72;;;26.89;55.80
15314;BME280;7757;52.626;4.746;2022-09-06T08:44:49;101346.03;;;27.05;55.29
15314;BME280;7757;52.626;4.746;2022-09-06T08:47:17;101341.69;;;27.38;54.72
15314;BME280;7757;52.626;4.746;2022-09-06T08:49:49;101338.34;;;27.51;54.33
15314;BME280;7757;52.626;4.746;2022-09-06T08:52:26;101339.13;;;27.13;53.38
15314;BME280;7757;52.626;4.746;2022-09-06T08:55:10;101348.97;;;26.60;53.05
15314;BME280;7757;52.626;4.746;2022-09-06T08:57:53;101349.44;;;26.82;53.52
15314;BME280;7757;52.626;4.746;2022-09-06T09:00:23;101350.47;;;26.96;52.67
15314;BME280;7757;52.626;4.746;2022-09-06T09:02:53;101344.97;;;27.01;51.70
15314;BME280;7757;52.626;4.746;2022-09-06T09:05:29;101349.56;;;27.11;51.90
15314;BME280;7757;52.626;4.746;2022-09-06T09:08:04;101348.84;;;27.44;51.60
15314;BME280;7757;52.626;4.746;2022-09-06T09:10:39;101340.88;;;27.38;51.65
15314;BME280;7757;52.626;4.746;2022-09-06T09:13:08;101355.06;;;27.55;51.26
15314;BME280;7757;52.626;4.746;2022-09-06T09:15:40;101347.81;;;27.25;51.70
15314;BME280;7757;52.626;4.746;2022-09-06T09:18:06;101340.75;;;27.58;51.05
15314;BME280;7757;52.626;4.746;2022-09-06T09:20:36;101346.19;;;27.68;50.89
15314;BME280;7757;52.626;4.746;2022-09-06T09:23:03;101347.91;;;27.59;52.02
15314;BME280;7757;52.626;4.746;2022-09-06T09:25:31;101343.81;;;27.07;52.58
15314;BME280;7757;52.626;4.746;2022-09-06T09:27:58;101336.25;;;27.28;53.14
15314;BME280;7757;52.626;4.746;2022-09-06T09:30:26;101329.25;;;27.12;52.77
15314;BME280;7757;52.626;4.746;2022-09-06T09:33:20;101325.50;;;26.98;53.09
15314;BME280;7757;52.626;4.746;2022-09-06T09:35:49;101320.03;;;26.88;53.17
15314;BME280;7757;52.626;4.746;2022-09-06T09:38:19;101325.19;;;26.99;53.70
15314;BME280;7757;52.626;4.746;2022-09-06T09:40:49;101323.19;;;27.15;53.28
15314;BME280;7757;52.626;4.746;2022-09-06T09:43:19;101333.66;;;27.08;53.33
15314;BME280;7757;52.626;4.746;2022-09-06T09:46:06;101336.38;;;27.57;53.05
15314;BME280;7757;52.626;4.746;2022-09-06T09:48:33;101334.69;;;27.22;53.36
15314;BME280;7757;52.626;4.746;2022-09-06T09:51:15;101329.19;;;27.22;53.27
15314;BME280;7757;52.626;4.746;2022-09-06T09:53:49;101332.94;;;27.36;53.22
15314;BME280;7757;52.626;4.746;2022-09-06T09:56:15;101322.91;;;27.11;53.79
15314;BME280;7757;52.626;4.746;2022-09-06T09:58:42;101317.81;;;26.90;54.13
15314;BME280;7757;52.626;4.746;2022-09-06T10:01:11;101322.41;;;27.04;54.08
15314;BME280;7757;52.626;4.746;2022-09-06T10:03:38;101323.44;;;27.19;53.25
15314;BME280;7757;52.626;4.746;2022-09-06T10:06:09;101325.75;;;27.01;54.18
15314;BME280;7757;52.626;4.746;2022-09-06T10:08:39;101318.78;;;27.19;54.17
15314;BME280;7757;52.626;4.746;2022-09-06T10:11:10;101333.19;;;26.91;54.13
15314;BME280;7757;52.626;4.746;2022-09-06T10:13:37;101320.19;;;27.11;54.25
15314;BME280;7757;52.626;4.746;2022-09-06T10:16:06;101320.84;;;27.42;53.87
15314;BME280;7757;52.626;4.746;2022-09-06T10:18:34;101327.28;;;27.17;53.83
15314;BME280;7757;52.626;4.746;2022-09-06T10:21:02;101341.81;;;27.23;53.92
15314;BME280;7757;52.626;4.746;2022-09-06T10:23:39;101336.34;;;27.18;54.36
15314;BME280;7757;52.626;4.746;2022-09-06T10:26:17;101350.72;;;27.49;53.95
15314;BME280;7757;52.626;4.746;2022-09-06T10:28:50;101356.16;;;27.59;53.63
15314;BME280;7757;52.626;4.746;2022-09-06T10:31:38;101362.75;;;27.58;53.68
15314;BME280;7757;52.626;4.746;2022-09-06T10:34:34;101354.59;;;27.48;54.12
15314;BME280;7757;52.626;4.746;2022-09-06T10:37:15;101353.00;;;27.37;54.31
15314;BME280;7757;52.626;4.746;2022-09-06T10:39:54;101362.84;;;27.38;54.24
15314;BME280;7757;52.626;4.746;2022-09-06T10:42:27;101373.88;;;27.33;54.24
15314;BME280;7757;52.626;4.746;2022-09-06T10:45:15;101372.53;;;27.25;54.44
15314;BME280;7757;52.626;4.746;2022-09-06T10:47:53;101375.84;;;27.27;54.24
15314;BME280;7757;52.626;4.746;2022-09-06T10:50:32;101363.09;;;27.46;53.81
15314;BME280;7757;52.626;4.746;2022-09-06T10:53:06;101372.06;;;27.62;53.66
15314;BME280;7757;52.626;4.746;2022-09-06T10:55:37;101373.03;;;28.15;52.38
15314;BME280;7757;52.626;4.746;2022-09-06T10:58:05;101366.75;;;28.09;52.34
15314;BME280;7757;52.626;4.746;2022-09-06T11:00:38;101377.66;;;28.19;51.91
15314;BME280;7757;52.626;4.746;2022-09-06T11:03:14;101360.59;;;28.17;51.64
15314;BME280;7757;52.626;4.746;2022-09-06T11:05:45;101374.88;;;28.48;51.37
15314;BME280;7757;52.626;4.746;2022-09-06T11:08:18;101383.53;;;28.37;50.99
15314;BME280;7757;52.626;4.746;2022-09-06T11:10:48;101379.03;;;28.17;51.89
15314;BME280;7757;52.626;4.746;2022-09-06T11:13:21;101389.34;;;28.01;52.61
15314;BME280;7757;52.626;4.746;2022-09-06T11:15:52;101388.31;;;27.92;52.88
15314;BME280;7757;52.626;4.746;2022-09-06T11:18:24;101390.41;;;28.10;52.69
15314;BME280;7757;52.626;4.746;2022-09-06T11:21:06;101383.09;;;28.24;52.48
15314;BME280;7757;52.626;4.746;2022-09-06T11:23:47;101396.16;;;28.38;52.14
15314;BME280;7757;52.626;4.746;2022-09-06T11:26:28;101391.84;;;27.98;53.34
15314;BME280;7757;52.626;4.746;2022-09-06T11:28:56;101388.03;;;27.94;53.34
15314;BME280;7757;52.626;4.746;2022-09-06T11:31:25;101379.75;;;27.99;53.20
15314;BME280;7757;52.626;4.746;2022-09-06T11:34:20;101375.00;;;28.09;52.76
15314;BME280;7757;52.626;4.746;2022-09-06T11:36:48;101378.19;;;28.21;52.43
15314;BME280;7757;52.626;4.746;2022-09-06T11:39:23;101378.34;;;28.01;53.08
15314;BME280;7757;52.626;4.746;2022-09-06T11:41:51;101381.63;;;28.03;52.51
15314;BME280;7757;52.626;4.746;2022-09-06T11:44:52;101371.09;;;28.15;52.23
15314;BME280;7757;52.626;4.746;2022-09-06T11:47:35;101360.94;;;28.11;52.90
15314;BME280;7757;52.626;4.746;2022-09-06T11:50:21;101381.06;;;28.06;53.28
15314;BME280;7757;52.626;4.746;2022-09-06T11:52:49;101379.56;;;27.85;53.68
15314;BME280;7757;52.626;4.746;2022-09-06T11:55:22;101396.47;;;28.07;53.54
15314;BME280;7757;52.626;4.746;2022-09-06T11:57:54;101398.56;;;27.87;54.06
15314;BME280;7757;52.626;4.746;2022-09-06T12:00:23;101382.56;;;27.89;54.22
15314;BME280;7757;52.626;4.746;2022-09-06T12:02:50;101387.69;;;27.66;54.42
15314;BME280;7757;52.626;4.746;2022-09-06T12:05:23;101389.66;;;27.61;54.73
15314;BME280;7757;52.626;4.746;2022-09-06T12:10:48;101384.78;;;27.53;54.88
15314;BME280;7757;52.626;4.746;2022-09-06T12:13:40;101384.16;;;27.66;54.36
15314;BME280;7757;52.626;4.746;2022-09-06T12:16:08;101390.44;;;27.66;54.02
15314;BME280;7757;52.626;4.746;2022-09-06T12:18:56;101391.78;;;27.74;53.66
15314;BME280;7757;52.626;4.746;2022-09-06T12:21:44;101385.69;;;27.77;53.72
15314;BME280;7757;52.626;4.746;2022-09-06T12:24:51;101387.09;;;27.75;53.81
15314;BME280;7757;52.626;4.746;2022-09-06T12:27:19;101382.16;;;27.72;53.82
15314;BME280;7757;52.626;4.746;2022-09-06T12:29:58;101397.28;;;27.74;53.88
15314;BME280;7757;52.626;4.746;2022-09-06T12:32:28;101392.97;;;27.58;54.28
15314;BME280;7757;52.626;4.746;2022-09-06T12:34:57;101391.91;;;27.54;54.10
15314;BME280;7757;52.626;4.746;2022-09-06T12:37:34;101390.41;;;27.72;53.78
15314;BME280;7757;52.626;4.746;2022-09-06T12:40:04;101381.84;;;27.78;53.85
15314;BME280;7757;52.626;4.746;2022-09-06T12:42:33;101388.50;;;27.72;54.22
15314;BME280;7757;52.626;4.746;2022-09-06T12:45:06;101381.88;;;27.73;54.17
15314;BME280;7757;52.626;4.746;2022-09-06T12:47:34;101389.63;;;27.66;54.46
15314;BME280;7757;52.626;4.746;2022-09-06T12:50:13;101386.91;;;27.61;54.44
15314;BME280;7757;52.626;4.746;2022-09-06T12:52:49;101379.78;;;27.60;54.21
15314;BME280;7757;52.626;4.746;2022-09-06T12:55:20;101374.91;;;27.47;54.53
15314;BME280;7757;52.626;4.746;2022-09-06T12:57:50;101377.63;;;27.52;54.57
15314;BME280;7757;52.626;4.746;2022-09-06T13:00:19;101377.94;;;27.50;54.71
15314;BME280;7757;52.626;4.746;2022-09-06T13:02:53;101372.94;;;27.57;54.96
15314;BME280;7757;52.626;4.746;2022-09-06T13:05:21;101360.41;;;27.36;54.99
15314;BME280;7757;52.626;4.746;2022-09-06T13:07:49;101362.28;;;27.46;54.95
15314;BME280;7757;52.626;4.746;2022-09-06T13:10:20;101351.44;;;27.21;55.28
15314;BME280;7757;52.626;4.746;2022-09-06T13:12:49;101358.47;;;27.42;54.68
15314;BME280;7757;52.626;4.746;2022-09-06T13:15:20;101359.53;;;27.41;54.39
15314;BME280;7757;52.626;4.746;2022-09-06T13:17:49;101351.84;;;27.48;54.65
15314;BME280;7757;52.626;4.746;2022-09-06T13:20:23;101362.25;;;27.51;53.81